createdAt,value
2022-10-13T00:00:00.000Z,22.82
2022-10-13T00:15:00.000Z,22.79
2022-10-13T00:30:00.000Z,23.42
2022-10-13T00:45:00.000Z,22.67
2022-10-13T01:00:00.000Z,20.15
2022-10-13T01:15:00.000Z,16.58
2022-10-13T01:30:00.000Z,13.73
2022-10-13T02:00:00.000Z,14.59
2022-10-13T02:15:00.000Z,15.64
2022-10-13T02:30:00.000Z,15.94
2022-10-13T02:45:00.000Z,15.68
2022-10-13T03:00:00.000Z,14.72
2022-10-13T03:15:00.000Z,13.81
2022-10-13T03:30:00.000Z,13.74
2022-10-13T03:45:00.000Z,14.74
2022-10-13T04:00:00.000Z,14.16
2022-10-13T04:15:00.000Z,15
2022-10-13T04:30:00.000Z,16.69
2022-10-13T04:45:00.000Z,58.2
2022-10-13T05:00:00.000Z,26.26
2022-10-13T05:15:00.000Z,17.21
2022-10-13T05:30:00.000Z,13.87
2022-10-13T05:45:00.000Z,14.73
2022-10-13T06:00:00.000Z,15.75
2022-10-13T06:15:00.000Z,14.08
2022-10-13T06:30:00.000Z,13.74
2022-10-13T06:45:00.000Z,13.93
2022-10-13T07:00:00.000Z,13.18
2022-10-13T07:15:00.000Z,11.94
2022-10-13T07:30:00.000Z,8.45
2022-10-13T07:45:00.000Z,6.93
2022-10-13T08:00:00.000Z,6.99
2022-10-13T08:15:00.000Z,7.28
2022-10-13T08:30:00.000Z,8.09
2022-10-13T08:45:00.000Z,7.65
2022-10-13T09:00:00.000Z,11.61
2022-10-13T09:15:00.000Z,9.42
2022-10-13T09:30:00.000Z,9.86
2022-10-13T09:45:00.000Z,11.09
2022-10-13T10:00:00.000Z,12.32
2022-10-13T10:15:00.000Z,11.28
2022-10-13T10:30:00.000Z,10.98
2022-10-13T10:45:00.000Z,11.01
2022-10-13T11:00:00.000Z,11.35
2022-10-13T11:15:00.000Z,11.26
2022-10-13T11:30:00.000Z,11.02
2022-10-13T11:45:00.000Z,11.78
2022-10-13T12:00:00.000Z,11.62
2022-10-13T12:15:00.000Z,11.48
2022-10-13T12:30:00.000Z,12.21
2022-10-13T12:45:00.000Z,12.85
2022-10-13T13:00:00.000Z,13.81
2022-10-13T13:15:00.000Z,12.99
2022-10-13T13:30:00.000Z,13.8
2022-10-13T13:45:00.000Z,14.44
2022-10-13T14:00:00.000Z,15.02
2022-10-13T14:15:00.000Z,16.33
2022-10-13T14:30:00.000Z,18.71
2022-10-13T14:45:00.000Z,15.51
2022-10-13T15:00:00.000Z,16.24
2022-10-13T15:15:00.000Z,15.59
2022-10-13T15:30:00.000Z,16.13
2022-10-13T15:45:00.000Z,15.68
2022-10-13T16:00:00.000Z,14.33
2022-10-13T16:15:00.000Z,16.66
2022-10-13T16:30:00.000Z,20.65
2022-10-13T16:45:00.000Z,28.94
2022-10-13T17:00:00.000Z,30.52
2022-10-13T17:15:00.000Z,20.75
2022-10-13T17:30:00.000Z,18.22
2022-10-13T17:45:00.000Z,17.75
2022-10-13T18:00:00.000Z,17.62
2022-10-13T18:15:00.000Z,18.54
2022-10-13T18:30:00.000Z,23.11
2022-10-13T18:45:00.000Z,25.08
2022-10-13T19:00:00.000Z,27.79
2022-10-13T19:15:00.000Z,29.33
2022-10-13T19:30:00.000Z,22.96
2022-10-13T19:45:00.000Z,25.81
2022-10-13T20:00:00.000Z,22.05
2022-10-13T20:15:00.000Z,20.13
2022-10-13T20:30:00.000Z,19.19
2022-10-13T20:45:00.000Z,20.04
2022-10-13T21:00:00.000Z,20.31
2022-10-13T21:15:00.000Z,19.39
2022-10-13T21:30:00.000Z,20.76
2022-10-13T21:45:00.000Z,18.72
2022-10-13T22:00:00.000Z,17.95
2022-10-13T22:15:00.000Z,17.16
2022-10-13T22:30:00.000Z,17.49
2022-10-13T22:45:00.000Z,16.92
2022-10-13T23:00:00.000Z,15.84
2022-10-13T23:15:00.000Z,16.06
2022-10-13T23:30:00.000Z,18.45
2022-10-13T23:45:00.000Z,16.27
